Time;durP1;ratioP1;P1;durP2;ratioP2;P2;SDS_P1;SDS_P2;PMS_P1;PMS_P2;Temp;Humidity;BMP_temperature;BMP_pressure;BME280_temperature;BME280_humidity;BME280_pressure;Samples;Min_cycle;Max_cycle;Signal;HPM_P1;HPM_P2
2022/03/02 00:00:55;;;;;;;13.93;10.37;;;;;;;1.35;63.87;101075.22;5042387;28;20248;-61
2022/03/02 00:03:20;;;;;;;13.83;10.13;;;;;;;1.27;64.03;101068.47;5071444;28;20307;-61
2022/03/02 00:05:45;;;;;;;13.77;10.80;;;;;;;1.15;64.49;101068.47;5072146;28;20172;-60
2022/03/02 00:08:11;;;;;;;13.63;9.87;;;;;;;1.12;64.77;101065.94;5072116;28;20177;-60
2022/03/02 00:10:37;;;;;;;13.60;10.37;;;;;;;1.00;65.45;101066.78;5064005;28;20666;-60
2022/03/02 00:13:02;;;;;;;11.70;10.10;;;;;;;0.95;66.02;101068.47;5083135;28;20226;-60
2022/03/02 00:15:28;;;;;;;16.17;11.13;;;;;;;0.85;66.39;101059.19;5064813;28;20680;-59
2022/03/02 00:17:53;;;;;;;15.13;10.90;;;;;;;0.70;67.23;101063.38;5070086;28;20176;-60
2022/03/02 00:20:19;;;;;;;15.83;11.03;;;;;;;0.68;68.37;101069.28;5063920;28;20172;-60
2022/03/02 00:22:44;;;;;;;13.77;9.97;;;;;;;0.61;68.59;101070.97;5070377;28;20212;-60
2022/03/02 00:25:09;;;;;;;15.50;9.90;;;;;;;0.56;69.16;101073.47;5071983;28;20176;-59
2022/03/02 00:27:36;;;;;;;23.03;11.83;;;;;;;0.57;69.47;101067.56;5071279;28;20275;-60
2022/03/02 00:30:03;;;;;;;14.37;10.40;;;;;;;0.59;69.75;101065.03;5069317;28;20180;-61
2022/03/02 00:32:28;;;;;;;14.37;10.57;;;;;;;0.56;70.14;101065.88;5018284;28;20351;-60
2022/03/02 00:34:54;;;;;;;14.23;10.33;;;;;;;0.53;70.42;101050.66;5071685;28;20274;-59
2022/03/02 00:37:19;;;;;;;15.00;10.80;;;;;;;0.56;70.34;101059.94;5071083;28;20317;-60
2022/03/02 00:39:45;;;;;;;13.37;11.03;;;;;;;0.53;70.93;101057.44;5070272;28;20211;-59
2022/03/02 00:42:10;;;;;;;13.20;10.30;;;;;;;0.48;70.99;101054.88;5045817;28;20263;-60
2022/03/02 00:44:35;;;;;;;16.83;10.93;;;;;;;0.44;70.72;101055.72;5072505;28;20180;-61
2022/03/02 00:47:02;;;;;;;14.43;10.67;;;;;;;0.47;70.69;101055.72;5078511;28;20169;-60
2022/03/02 00:49:27;;;;;;;16.60;11.90;;;;;;;0.41;70.79;101050.63;5076185;28;20183;-59
2022/03/02 00:51:56;;;;;;;21.70;11.50;;;;;;;0.27;71.74;101043.00;5082582;28;20635;-59
2022/03/02 00:54:21;;;;;;;15.10;10.70;;;;;;;0.28;71.84;101037.13;5076923;28;20171;-60
2022/03/02 00:56:47;;;;;;;15.27;10.43;;;;;;;0.14;72.38;101030.31;5078540;28;20601;-60
2022/03/02 00:59:12;;;;;;;13.97;11.13;;;;;;;0.20;72.38;101026.09;5077565;28;20208;-59
2022/03/02 01:01:37;;;;;;;18.50;11.73;;;;;;;0.18;72.46;101023.59;5066987;28;20309;-59
2022/03/02 01:04:03;;;;;;;15.20;11.70;;;;;;;0.14;72.62;101019.38;5073525;28;20678;-59
2022/03/02 01:06:28;;;;;;;15.60;11.03;;;;;;;0.09;73.12;101023.56;5078143;28;20165;-59
2022/03/02 01:08:54;;;;;;;16.30;10.60;;;;;;;0.08;73.18;101030.28;5077572;28;20184;-58
2022/03/02 01:11:19;;;;;;;19.20;11.80;;;;;;;0.11;72.67;101030.31;5067016;28;20317;-59
2022/03/02 01:13:44;;;;;;;15.97;11.10;;;;;;;0.08;73.11;101026.94;5077907;28;20651;-60
2022/03/02 01:16:09;;;;;;;13.40;10.77;;;;;;;-0.08;74.09;101026.84;5078091;28;20211;-60
2022/03/02 01:18:35;;;;;;;14.27;10.80;;;;;;;0.05;74.07;101024.38;5077862;28;20184;-61
2022/03/02 01:21:00;;;;;;;15.40;10.87;;;;;;;0.02;74.13;101025.22;5067248;28;20231;-59
2022/03/02 01:23:26;;;;;;;14.30;10.67;;;;;;;0.00;74.46;101021.84;5077231;28;20284;-60
2022/03/02 01:25:51;;;;;;;14.30;10.93;;;;;;;-0.12;73.98;101020.09;5076837;28;20227;-60
2022/03/02 01:28:16;;;;;;;16.87;10.93;;;;;;;-0.10;73.58;101007.44;5076969;28;20184;-60
2022/03/02 01:30:42;;;;;;;14.03;10.60;;;;;;;-0.08;73.17;101014.22;5072645;28;20274;-60
2022/03/02 01:33:07;;;;;;;16.27;11.13;;;;;;;-0.09;72.80;101001.56;5088598;28;20183;-61
2022/03/02 01:35:32;;;;;;;19.13;11.47;;;;;;;-0.13;73.18;100997.34;5077855;28;20255;-60
2022/03/02 01:37:58;;;;;;;14.53;11.47;;;;;;;-0.42;74.05;100998.03;5075743;28;20220;-60
2022/03/02 01:40:23;;;;;;;17.10;11.60;;;;;;;-0.42;74.94;100992.97;5067276;28;20228;-61
2022/03/02 01:42:49;;;;;;;17.60;11.07;;;;;;;-0.43;75.90;100991.31;5067821;28;20204;-59
2022/03/02 01:45:14;;;;;;;13.70;10.07;;;;;;;-0.43;75.56;100982.03;5077758;28;20172;-61
2022/03/02 01:47:40;;;;;;;17.13;11.13;;;;;;;-0.40;75.67;100986.25;5075369;28;20673;-59
2022/03/02 01:50:09;;;;;;;14.90;10.97;;;;;;;-0.49;75.57;100984.53;5057714;28;20653;-60
2022/03/02 01:52:34;;;;;;;17.93;11.17;;;;;;;-0.52;76.06;100989.53;5092905;28;20184;-59
2022/03/02 01:55:00;;;;;;;17.03;10.87;;;;;;;-0.57;76.56;100989.53;5076402;28;20187;-59
2022/03/02 01:57:27;;;;;;;16.30;11.70;;;;;;;-0.59;76.71;100988.69;5073429;28;20181;-61
2022/03/02 01:59:52;;;;;;;12.20;10.40;;;;;;;-0.59;76.77;100990.38;5073348;28;20177;-60
2022/03/02 02:02:17;;;;;;;16.50;10.80;;;;;;;-0.63;76.87;100989.50;5063203;28;20231;-60
2022/03/02 02:04:43;;;;;;;21.33;11.90;;;;;;;-0.63;76.78;100979.41;5056647;28;20183;-60
2022/03/02 02:07:08;;;;;;;14.47;10.97;;;;;;;-0.57;76.63;100976.91;5074862;28;20252;-60
2022/03/02 02:09:34;;;;;;;15.33;11.47;;;;;;;-0.51;75.50;100976.06;5073813;28;20712;-60
2022/03/02 02:11:59;;;;;;;13.93;10.33;;;;;;;-0.58;75.72;100974.34;5068566;28;20224;-60
2022/03/02 02:14:25;;;;;;;19.23;10.93;;;;;;;-0.54;75.45;100971.03;5074070;28;20188;-59
2022/03/02 02:16:51;;;;;;;15.17;11.33;;;;;;;-0.43;75.32;100966.03;5074400;28;20210;-60
2022/03/02 02:19:16;;;;;;;11.07;9.67;;;;;;;-0.30;74.28;100966.91;5073450;28;20688;-61
2022/03/02 02:21:41;;;;;;;14.17;10.13;;;;;;;-0.37;74.55;100961.00;5049328;28;20737;-60
2022/03/02 02:24:07;;;;;;;13.20;10.63;;;;;;;-0.33;75.07;100955.09;5076772;28;20684;-59
2022/03/02 02:26:32;;;;;;;19.70;11.03;;;;;;;-0.53;76.38;100955.84;5065976;28;20189;-59
2022/03/02 02:28:58;;;;;;;13.80;10.57;;;;;;;-0.55;76.43;100954.16;5070719;28;20541;-59
2022/03/02 02:31:24;;;;;;;15.57;10.63;;;;;;;-0.73;77.69;100949.84;5065605;28;20227;-60
2022/03/02 02:33:51;;;;;;;15.10;11.60;;;;;;;-0.63;77.47;100946.53;5072753;28;20176;-60
2022/03/02 02:36:16;;;;;;;14.13;11.10;;;;;;;-0.53;77.14;100945.75;5073893;28;20222;-61
2022/03/02 02:38:41;;;;;;;12.80;9.90;;;;;;;-0.55;76.51;100933.94;5071616;28;20628;-60
2022/03/02 02:41:07;;;;;;;15.20;11.03;;;;;;;-0.57;75.86;100933.94;5062666;28;20386;-60
2022/03/02 02:43:33;;;;;;;13.23;9.80;;;;;;;-0.59;75.44;100938.13;5069187;28;20647;-60
2022/03/02 02:45:59;;;;;;;12.37;10.37;;;;;;;-0.63;75.65;100930.53;5073887;28;20176;-59
2022/03/02 02:48:29;;;;;;;13.83;10.00;;;;;;;-0.72;76.28;100927.13;5073397;28;20256;-59
2022/03/02 02:50:54;;;;;;;12.03;9.80;;;;;;;-0.70;76.16;100927.13;5056863;28;20710;-60
2022/03/02 02:53:20;;;;;;;14.47;10.53;;;;;;;-0.71;76.14;100921.25;5072668;28;20176;-60
2022/03/02 02:55:45;;;;;;;15.17;10.60;;;;;;;-0.80;76.22;100918.66;5072145;28;20187;-61
2022/03/02 02:58:12;;;;;;;14.90;10.70;;;;;;;-0.82;76.45;100913.59;5072737;28;20180;-60
2022/03/02 03:00:41;;;;;;;14.00;10.33;;;;;;;-0.72;76.50;100908.59;5065184;28;20227;-59
2022/03/02 03:03:06;;;;;;;15.13;10.80;;;;;;;-0.85;75.73;100918.63;5072038;28;20196;-60
2022/03/02 03:05:33;;;;;;;13.73;10.30;;;;;;;-0.84;75.82;100922.00;5073241;28;20199;-59
2022/03/02 03:08:12;;;;;;;15.40;11.30;;;;;;;-0.99;75.59;100923.59;5070392;28;20252;-59
2022/03/02 03:10:39;;;;;;;12.77;10.17;;;;;;;-0.95;76.93;100921.94;5065295;28;20314;-60
2022/03/02 03:13:05;;;;;;;15.13;10.67;;;;;;;-0.98;76.79;100924.44;5072001;28;20530;-60
2022/03/02 03:15:33;;;;;;;13.17;9.90;;;;;;;-0.99;76.62;100921.06;5071659;28;20229;-60
2022/03/02 03:17:59;;;;;;;12.30;9.80;;;;;;;-0.95;76.61;100921.94;5071398;28;20176;-59
2022/03/02 03:20:27;;;;;;;12.60;10.23;;;;;;;-0.92;76.87;100916.06;5064395;28;20288;-59
2022/03/02 03:22:55;;;;;;;15.80;10.93;;;;;;;-0.89;76.98;100921.97;5070890;28;20192;-60
2022/03/02 03:25:22;;;;;;;15.70;10.33;;;;;;;-0.86;77.19;100918.63;5067351;28;20179;-62
2022/03/02 03:27:48;;;;;;;14.67;10.17;;;;;;;-0.90;77.00;100911.88;5071227;28;20536;-59
2022/03/02 03:30:16;;;;;;;13.73;10.80;;;;;;;-0.92;77.81;100909.31;5062737;28;20179;-60
2022/03/02 03:32:41;;;;;;;18.90;11.73;;;;;;;-0.94;78.65;100905.09;5086994;28;20265;-61
2022/03/02 03:35:11;;;;;;;12.70;10.30;;;;;;;-1.04;78.93;100906.72;5071476;28;20711;-60
2022/03/02 03:37:37;;;;;;;12.80;10.60;;;;;;;-0.89;78.75;100909.34;5070307;28;20240;-60
2022/03/02 03:40:03;;;;;;;14.57;10.63;;;;;;;-0.82;78.29;100898.44;5070376;28;20269;-61
2022/03/02 03:42:29;;;;;;;14.57;11.30;;;;;;;-0.89;78.32;100899.25;5054737;28;20216;-59
2022/03/02 03:44:54;;;;;;;13.83;10.20;;;;;;;-0.90;78.48;100897.56;5072487;28;20182;-60
2022/03/02 03:47:19;;;;;;;11.93;9.87;;;;;;;-0.93;78.04;100889.09;5070639;28;20752;-61
2022/03/02 03:49:45;;;;;;;13.40;10.10;;;;;;;-0.96;78.72;100889.94;5072453;28;20181;-60
2022/03/02 03:52:11;;;;;;;11.80;9.07;;;;;;;-0.90;79.02;100889.13;5077207;28;20659;-61
2022/03/02 03:54:36;;;;;;;13.30;10.80;;;;;;;-0.95;78.42;100886.56;5071222;28;20184;-61
2022/03/02 03:57:02;;;;;;;13.33;10.37;;;;;;;-0.99;78.12;100887.41;5072453;28;20250;-60
2022/03/02 03:59:28;;;;;;;12.20;10.13;;;;;;;-0.85;77.97;100878.22;5070200;28;20169;-60
2022/03/02 04:01:53;;;;;;;12.40;10.33;;;;;;;-0.79;76.94;100884.97;5038097;28;20235;-60
2022/03/02 04:04:19;;;;;;;14.53;9.97;;;;;;;-0.75;77.21;100885.84;5072611;28;20219;-60
2022/03/02 04:06:45;;;;;;;15.23;10.67;;;;;;;-0.56;76.02;100882.56;5071909;28;20176;-60
2022/03/02 04:09:10;;;;;;;13.10;9.50;;;;;;;-0.74;75.90;100870.69;5072148;28;20232;-60
2022/03/02 04:11:36;;;;;;;10.23;9.20;;;;;;;-0.56;76.25;100872.47;5060733;28;20672;-60
2022/03/02 04:14:01;;;;;;;14.07;10.10;;;;;;;-0.52;76.03;100871.63;5071672;28;20594;-60
2022/03/02 04:16:27;;;;;;;13.33;10.40;;;;;;;-0.46;75.61;100873.31;5061618;28;20311;-61
2022/03/02 04:18:52;;;;;;;13.73;9.83;;;;;;;-0.48;75.36;100869.94;5064853;28;20620;-60
2022/03/02 04:21:17;;;;;;;13.60;10.37;;;;;;;-0.59;75.22;100869.91;5057520;28;20230;-59
2022/03/02 04:23:43;;;;;;;12.17;9.87;;;;;;;-0.57;76.36;100869.91;5071303;28;20204;-60
2022/03/02 04:26:08;;;;;;;12.17;9.63;;;;;;;-0.75;77.09;100868.16;5071889;28;20230;-61
2022/03/02 04:28:33;;;;;;;11.03;9.17;;;;;;;-0.62;77.01;100867.38;5071689;28;20288;-60
2022/03/02 04:30:58;;;;;;;12.13;9.57;;;;;;;-0.62;77.21;100876.63;5040593;28;20224;-61
2022/03/02 04:33:24;;;;;;;14.20;10.43;;;;;;;-0.51;77.06;100872.44;5070824;28;20182;-59
2022/03/02 04:35:49;;;;;;;12.97;9.80;;;;;;;-0.44;76.35;100864.06;5070777;28;20646;-59
2022/03/02 04:38:15;;;;;;;15.70;10.43;;;;;;;-0.41;76.74;100858.16;5051845;28;20241;-59
2022/03/02 04:40:41;;;;;;;12.40;10.47;;;;;;;-0.63;77.09;100857.25;5046880;28;20223;-59
2022/03/02 04:43:06;;;;;;;13.43;9.23;;;;;;;-0.56;77.98;100866.53;5061771;28;20636;-60
2022/03/02 04:45:32;;;;;;;11.93;9.17;;;;;;;-0.38;77.40;100861.53;5067929;28;20172;-59
2022/03/02 04:47:58;;;;;;;11.33;9.57;;;;;;;-0.36;76.90;100856.47;5071301;28;20184;-60
2022/03/02 04:50:24;;;;;;;13.47;9.93;;;;;;;-0.38;77.07;100858.19;5059933;28;20338;-61
2022/03/02 04:52:51;;;;;;;12.20;9.70;;;;;;;-0.46;76.93;100858.13;5070624;28;20254;-60
2022/03/02 04:55:16;;;;;;;12.40;9.83;;;;;;;-0.20;76.81;100850.66;5070223;28;20192;-65
2022/03/02 04:57:53;;;;;;;15.30;10.17;;;;;;;-0.26;74.66;100847.25;5071429;28;20184;-60
2022/03/02 05:00:25;;;;;;;11.37;9.23;;;;;;;-0.37;75.36;100840.50;5062162;28;20173;-59
2022/03/02 05:02:51;;;;;;;13.40;8.93;;;;;;;-0.28;75.05;100837.13;5084105;28;20192;-61
2022/03/02 05:05:19;;;;;;;12.30;8.87;;;;;;;-0.16;73.89;100838.84;5069711;28;20257;-61
2022/03/02 05:07:45;;;;;;;11.23;8.57;;;;;;;0.05;73.65;100849.81;5069797;28;20654;-59
2022/03/02 05:10:12;;;;;;;12.90;9.30;;;;;;;0.19;73.63;100855.75;5062485;28;20177;-59
2022/03/02 05:12:38;;;;;;;14.67;9.67;;;;;;;0.37;72.68;100852.34;5084329;28;20264;-60
2022/03/02 05:15:04;;;;;;;10.67;9.27;;;;;;;0.46;72.00;100849.84;5062105;28;20555;-60
2022/03/02 05:17:30;;;;;;;11.10;8.50;;;;;;;0.53;71.51;100845.59;5049062;28;20619;-60
2022/03/02 05:19:56;;;;;;;14.73;9.60;;;;;;;0.47;71.14;100854.06;5070556;28;20216;-60
2022/03/02 05:22:21;;;;;;;11.30;9.27;;;;;;;0.51;70.53;100854.03;5076732;28;20635;-60
2022/03/02 05:24:47;;;;;;;11.80;9.30;;;;;;;0.55;71.77;100859.09;5070146;28;20219;-60
2022/03/02 05:27:12;;;;;;;10.13;8.37;;;;;;;0.48;71.48;100858.28;5071340;28;20616;-61
2022/03/02 05:29:38;;;;;;;14.53;8.97;;;;;;;0.43;71.74;100864.19;5070528;28;20205;-60
2022/03/02 05:32:04;;;;;;;12.43;8.90;;;;;;;0.49;70.99;100866.69;5078656;28;20223;-60
2022/03/02 05:34:29;;;;;;;12.67;8.97;;;;;;;0.63;71.49;100862.47;5073778;28;20223;-59
2022/03/02 05:36:55;;;;;;;12.83;8.33;;;;;;;0.69;70.31;100866.69;5074879;28;20267;-60
2022/03/02 05:39:20;;;;;;;10.67;8.93;;;;;;;0.69;69.64;100859.09;5074218;28;20215;-60
2022/03/02 05:41:46;;;;;;;16.67;8.90;;;;;;;0.72;67.81;100863.28;5063496;28;20232;-60
2022/03/02 05:44:12;;;;;;;12.43;8.20;;;;;;;0.58;68.97;100865.84;5074530;28;20200;-60
2022/03/02 05:46:38;;;;;;;9.67;8.30;;;;;;;0.77;68.04;100871.72;5073167;28;20173;-61
2022/03/02 05:49:04;;;;;;;12.43;8.50;;;;;;;0.72;64.31;100876.81;5072583;28;20185;-60
2022/03/02 05:51:30;;;;;;;10.93;7.57;;;;;;;0.72;61.79;100874.28;5075682;28;20276;-60
2022/03/02 05:53:59;;;;;;;12.10;8.17;;;;;;;0.80;60.04;100874.25;5078863;28;20176;-61
2022/03/02 05:56:25;;;;;;;9.47;7.13;;;;;;;0.79;59.25;100878.50;5073229;28;20176;-60
2022/03/02 05:58:51;;;;;;;8.30;7.13;;;;;;;0.84;58.94;100872.56;5072575;28;20628;-60
2022/03/02 06:01:17;;;;;;;9.03;7.20;;;;;;;0.90;58.87;100873.38;5055360;28;20315;-61
2022/03/02 06:03:43;;;;;;;12.83;7.07;;;;;;;0.87;58.43;100864.94;5074121;28;20265;-59
2022/03/02 06:06:08;;;;;;;9.90;6.97;;;;;;;0.82;58.00;100867.53;5073185;28;20172;-59
2022/03/02 06:08:33;;;;;;;10.57;7.27;;;;;;;0.93;57.54;100865.81;5072641;28;20248;-59
2022/03/02 06:10:59;;;;;;;9.90;7.33;;;;;;;0.97;57.87;100864.09;5058340;28;20304;-59
2022/03/02 06:13:24;;;;;;;9.90;7.23;;;;;;;1.07;56.97;100858.16;5063482;28;20711;-60
2022/03/02 06:15:50;;;;;;;10.23;7.50;;;;;;;1.12;56.99;100858.97;5073451;28;20181;-59
2022/03/02 06:18:15;;;;;;;9.93;7.20;;;;;;;1.15;56.74;100855.59;5073785;28;20185;-59
2022/03/02 06:20:42;;;;;;;9.93;7.43;;;;;;;1.23;56.86;100861.50;5060397;28;20221;-61
2022/03/02 06:23:08;;;;;;;13.87;6.80;;;;;;;1.13;56.28;100855.59;5064057;28;20215;-59
2022/03/02 06:25:33;;;;;;;10.97;7.20;;;;;;;1.15;56.36;100857.28;5059693;28;20184;-60
2022/03/02 06:27:59;;;;;;;9.00;6.83;;;;;;;1.21;56.50;100854.75;5063744;28;20228;-60
2022/03/02 06:30:24;;;;;;;8.17;7.10;;;;;;;1.27;55.91;100857.25;5051527;28;20220;-60
2022/03/02 06:32:49;;;;;;;10.37;7.40;;;;;;;1.40;55.44;100858.88;5066182;28;20180;-59
2022/03/02 06:35:15;;;;;;;12.93;7.23;;;;;;;1.32;54.35;100859.78;5052643;28;20232;-59
2022/03/02 06:37:40;;;;;;;8.27;6.50;;;;;;;1.13;54.49;100849.72;5053355;28;20278;-59
2022/03/02 06:40:13;;;;;;;8.93;6.70;;;;;;;1.17;54.04;100853.91;5058281;28;20209;-61
2022/03/02 06:43:08;;;;;;;11.47;6.87;;;;;;;1.18;53.86;100847.13;5056781;28;20195;-61
2022/03/02 06:45:58;;;;;;;9.63;6.43;;;;;;;1.32;53.78;100845.41;5069337;28;20277;-60
2022/03/02 06:48:45;;;;;;;8.83;6.33;;;;;;;1.51;53.46;100847.84;5071510;28;20242;-60
2022/03/02 06:51:14;;;;;;;14.60;6.97;;;;;;;1.62;53.47;100848.63;5081969;28;20322;-61
2022/03/02 06:53:43;;;;;;;10.27;6.87;;;;;;;1.58;53.07;100852.88;5072166;28;20177;-59
2022/03/02 06:56:09;;;;;;;9.17;6.87;;;;;;;1.57;52.65;100855.41;5071992;28;20643;-59
2022/03/02 06:58:55;;;;;;;8.63;7.07;;;;;;;1.54;53.16;100850.34;5088383;28;20271;-61
2022/03/02 07:01:32;;;;;;;8.13;6.87;;;;;;;1.63;52.61;100849.50;5053796;28;20297;-63
2022/03/02 07:03:59;;;;;;;11.17;6.60;;;;;;;1.64;52.91;100846.06;5067394;28;20200;-59
2022/03/02 07:06:27;;;;;;;13.30;7.63;;;;;;;1.74;52.66;100853.63;5060023;28;20251;-59
2022/03/02 07:08:54;;;;;;;10.80;6.97;;;;;;;1.98;52.55;100845.88;5068352;28;20183;-60
2022/03/02 07:11:25;;;;;;;11.80;7.20;;;;;;;2.00;52.53;100854.31;5064355;28;20368;-60
2022/03/02 07:13:51;;;;;;;8.67;6.57;;;;;;;1.95;52.16;100854.34;5065154;28;20181;-62
2022/03/02 07:16:21;;;;;;;11.10;7.40;;;;;;;1.91;51.99;100850.13;5055513;28;20174;-60
2022/03/02 07:18:47;;;;;;;12.67;8.10;;;;;;;1.93;52.44;100845.91;5057358;28;20238;-61
2022/03/02 07:21:15;;;;;;;12.17;7.37;;;;;;;1.89;52.84;100850.16;5054157;28;20274;-60
2022/03/02 07:23:55;;;;;;;15.57;10.60;;;;;;;2.04;52.81;100844.13;5058565;28;20210;-61
2022/03/02 07:26:23;;;;;;;8.17;7.03;;;;;;;2.29;52.46;100845.66;5058070;28;20229;-61
2022/03/02 07:28:48;;;;;;;12.43;7.43;;;;;;;2.45;52.11;100847.19;5052719;28;20193;-59
2022/03/02 07:31:14;;;;;;;9.33;6.80;;;;;;;2.29;51.89;100840.56;5050538;28;20248;-60
2022/03/02 07:33:42;;;;;;;8.50;7.03;;;;;;;2.34;52.46;100836.28;5058452;28;20255;-59
2022/03/02 07:36:11;;;;;;;9.73;7.30;;;;;;;2.20;52.24;100839.78;5051349;28;20668;-59
2022/03/02 07:38:37;;;;;;;9.10;6.63;;;;;;;2.23;52.59;100838.91;5052412;28;20671;-60
2022/03/02 07:41:07;;;;;;;10.13;7.20;;;;;;;2.57;52.31;100841.16;5043612;28;20222;-59
2022/03/02 07:43:36;;;;;;;10.20;7.00;;;;;;;2.67;51.24;100839.38;5064357;28;20203;-59
2022/03/02 07:46:01;;;;;;;16.53;7.77;;;;;;;2.44;51.25;100834.50;5053523;28;20199;-60
2022/03/02 07:48:26;;;;;;;11.77;7.50;;;;;;;2.51;51.52;100836.16;5050127;28;20274;-59
2022/03/02 07:50:52;;;;;;;21.70;8.27;;;;;;;2.67;51.05;100834.31;5048129;28;20627;-59
2022/03/02 07:53:23;;;;;;;10.70;7.00;;;;;;;2.71;50.94;100841.03;5066143;28;20701;-60
2022/03/02 07:55:53;;;;;;;11.93;8.90;;;;;;;3.02;50.04;100839.00;5049337;28;20783;-60
2022/03/02 07:58:19;;;;;;;11.57;7.93;;;;;;;2.91;50.30;100835.72;5062247;28;20180;-60
2022/03/02 08:00:48;;;;;;;11.40;7.67;;;;;;;2.99;50.11;100838.19;5047687;28;20601;-60
2022/03/02 08:03:15;;;;;;;12.83;7.43;;;;;;;2.89;50.09;100837.44;5050685;28;20215;-59
2022/03/02 08:05:41;;;;;;;11.20;7.37;;;;;;;2.96;49.67;100840.78;5062943;28;20176;-60
2022/03/02 08:08:08;;;;;;;10.90;7.07;;;;;;;3.13;49.93;100843.13;5050307;28;20236;-59
2022/03/02 08:10:33;;;;;;;11.53;7.43;;;;;;;2.96;49.63;100845.84;5046280;28;20234;-60
2022/03/02 08:12:59;;;;;;;12.07;7.27;;;;;;;2.77;49.52;100848.59;5058450;28;20185;-59
2022/03/02 08:15:26;;;;;;;7.90;6.70;;;;;;;2.80;49.55;100848.53;5044488;28;20274;-59
2022/03/02 08:17:52;;;;;;;9.70;8.00;;;;;;;2.80;49.44;100855.34;5050219;28;20628;-60
2022/03/02 08:20:18;;;;;;;40.83;9.20;;;;;;;3.09;49.82;100857.56;5042374;28;20198;-60
2022/03/02 08:22:45;;;;;;;10.10;7.07;;;;;;;3.21;48.76;100857.44;5065088;28;20655;-59
2022/03/02 08:25:11;;;;;;;11.83;6.70;;;;;;;3.12;48.76;100857.53;5050371;28;20267;-59
2022/03/02 08:27:43;;;;;;;14.33;7.57;;;;;;;3.09;48.61;100857.56;5049999;28;20616;-60
2022/03/02 08:30:11;;;;;;;8.43;6.90;;;;;;;3.03;48.63;100852.56;5023425;28;20192;-60
2022/03/02 08:32:40;;;;;;;10.23;7.67;;;;;;;3.12;48.91;100852.44;5049898;28;20180;-59
2022/03/02 08:35:06;;;;;;;10.57;7.93;;;;;;;3.21;48.61;100854.03;5050359;28;20227;-61
2022/03/02 08:37:32;;;;;;;10.23;7.33;;;;;;;3.05;48.30;100853.34;5049414;28;20326;-60
2022/03/02 08:39:59;;;;;;;8.57;7.03;;;;;;;3.00;48.34;100845.81;5066727;28;20208;-61
2022/03/02 08:42:25;;;;;;;12.57;8.00;;;;;;;3.21;48.11;100848.94;5044036;28;20283;-59
2022/03/02 08:44:50;;;;;;;9.63;7.47;;;;;;;3.39;47.77;100848.72;5071564;28;20173;-59
2022/03/02 08:47:15;;;;;;;10.30;6.90;;;;;;;3.32;47.95;100849.66;5068257;28;20202;-60
2022/03/02 08:49:41;;;;;;;13.70;7.73;;;;;;;3.36;48.18;100845.38;5049881;28;20249;-61
2022/03/02 08:52:07;;;;;;;12.60;7.40;;;;;;;3.79;47.59;100833.78;5056798;28;20775;-60
2022/03/02 08:54:42;;;;;;;10.70;7.07;;;;;;;4.10;46.81;100840.94;5052865;28;20181;-59
2022/03/02 09:00:29;;;;;;;11.63;7.00;;;;;;;3.60;47.05;100844.22;5059204;28;20317;-58
2022/03/02 09:02:55;;;;;;;19.63;7.17;;;;;;;3.75;46.77;100837.25;5070577;28;20597;-60
2022/03/02 09:05:22;;;;;;;11.05;8.00;;;;;;;3.79;45.93;100841.41;5070084;28;20406;-60
2022/03/02 09:07:47;;;;;;;9.77;8.07;;;;;;;3.58;46.17;100838.28;5072929;28;20912;-58
2022/03/02 09:10:12;;;;;;;11.13;7.10;;;;;;;3.39;46.20;100841.09;5064606;28;20180;-61
2022/03/02 09:12:42;;;;;;;10.00;6.67;;;;;;;3.31;46.80;100850.53;5085473;28;20205;-59
2022/03/02 09:15:09;;;;;;;12.40;7.33;;;;;;;3.22;46.73;100854.03;5055702;28;20340;-59
2022/03/02 09:17:35;;;;;;;36.20;8.10;;;;;;;3.36;46.72;100853.84;5054054;28;20188;-59
2022/03/02 09:20:01;;;;;;;11.63;7.53;;;;;;;3.44;46.80;100850.38;5055159;28;20211;-60
2022/03/02 09:22:27;;;;;;;7.87;6.93;;;;;;;3.57;46.58;100845.97;5044122;28;20240;-59
2022/03/02 09:24:53;;;;;;;10.20;7.03;;;;;;;3.37;46.80;100849.59;5053824;28;20243;-60
2022/03/02 09:27:27;;;;;;;10.60;6.87;;;;;;;3.23;47.22;100858.22;5063016;28;20172;-60
2022/03/02 09:29:57;;;;;;;10.83;6.50;;;;;;;3.21;47.76;100854.88;5073605;28;20177;-60
2022/03/02 09:32:25;;;;;;;7.77;6.90;;;;;;;3.41;47.10;100852.94;5047070;28;20338;-59
2022/03/02 09:34:54;;;;;;;10.37;7.03;;;;;;;3.54;46.74;100837.50;5073589;28;20179;-59
2022/03/02 09:37:22;;;;;;;9.80;7.00;;;;;;;3.48;47.17;100842.66;5086171;28;20243;-59
2022/03/02 09:39:49;;;;;;;10.33;7.70;;;;;;;3.49;47.02;100841.81;5081803;28;20216;-59
2022/03/02 09:42:24;;;;;;;14.30;7.00;;;;;;;3.46;46.81;100844.41;5060215;28;20556;-59
2022/03/02 09:44:58;;;;;;;8.57;6.80;;;;;;;3.45;47.23;100836.78;5067021;28;20272;-59
2022/03/02 09:47:24;;;;;;;16.77;6.70;;;;;;;3.45;47.08;100842.72;5072907;28;20179;-60
2022/03/02 09:49:55;;;;;;;9.03;6.77;;;;;;;3.45;47.10;100837.63;5056073;28;20185;-59
2022/03/02 09:52:23;;;;;;;9.33;7.03;;;;;;;3.49;47.13;100835.91;5044153;28;20393;-60
2022/03/02 09:54:54;;;;;;;8.20;7.10;;;;;;;3.48;47.43;100839.28;5072868;28;20677;-58
2022/03/02 09:57:22;;;;;;;8.97;6.97;;;;;;;3.37;47.48;100822.47;5072669;28;20666;-59
2022/03/02 09:59:55;;;;;;;11.77;7.57;;;;;;;3.47;47.46;100820.63;5073809;28;20175;-59
2022/03/02 10:02:37;;;;;;;11.07;7.27;;;;;;;3.45;47.73;100818.97;5046614;28;20231;-59
2022/03/02 10:05:24;;;;;;;14.83;6.77;;;;;;;3.62;47.20;100817.06;5071286;28;20252;-62
2022/03/02 10:08:00;;;;;;;8.50;7.03;;;;;;;3.71;46.99;100816.91;5068279;28;20188;-58
2022/03/02 10:10:28;;;;;;;11.63;6.60;;;;;;;3.93;46.90;100815.75;5065596;28;20246;-60
2022/03/02 10:12:56;;;;;;;10.80;6.87;;;;;;;3.97;46.28;100813.13;5072922;28;20670;-59
2022/03/02 10:15:21;;;;;;;12.48;8.40;;;;;;;4.45;45.53;100821.69;5071516;28;20447;-61
2022/03/02 10:17:54;;;;;;;10.07;7.03;;;;;;;4.32;44.67;100815.97;5073200;28;20268;-59
2022/03/02 10:20:21;;;;;;;11.47;8.03;;;;;;;4.05;45.34;100818.09;5053554;28;20663;-60
2022/03/02 10:22:46;;;;;;;10.07;7.53;;;;;;;3.92;45.97;100812.38;5066718;28;20325;-60
2022/03/02 10:25:15;;;;;;;10.00;7.53;;;;;;;4.28;46.21;100812.63;5053905;28;20435;-58
2022/03/02 10:27:58;;;;;;;8.20;6.93;;;;;;;4.52;45.04;100819.00;5053381;28;20256;-59
2022/03/02 10:30:28;;;;;;;9.17;7.80;;;;;;;4.52;45.08;100823.28;5044951;28;20299;-59
2022/03/02 10:33:01;;;;;;;12.70;7.40;;;;;;;4.34;44.45;100826.97;5052521;28;20533;-59
2022/03/02 10:35:30;;;;;;;9.83;7.60;;;;;;;4.24;44.68;100823.72;5052405;28;20679;-60
2022/03/02 10:38:04;;;;;;;9.10;7.20;;;;;;;4.09;44.92;100827.38;5051567;28;20286;-59
2022/03/02 10:40:34;;;;;;;8.93;7.50;;;;;;;4.04;45.06;100830.00;5061045;28;20315;-60
2022/03/02 10:43:09;;;;;;;10.93;8.13;;;;;;;4.15;45.22;100819.63;5060164;28;20243;-59
2022/03/02 10:45:49;;;;;;;9.00;6.83;;;;;;;4.31;45.23;100821.94;5072210;28;20172;-59
2022/03/02 10:49:00;;;;;;;9.00;7.83;;;;;;;4.37;45.44;100814.19;5068906;28;20415;-59
2022/03/02 10:51:27;;;;;;;9.23;7.03;;;;;;;4.27;44.97;100810.13;5023003;28;20705;-59
2022/03/02 10:53:56;;;;;;;9.27;7.03;;;;;;;4.35;45.01;100814.22;5014461;28;20669;-59
2022/03/02 10:56:26;;;;;;;15.60;7.53;;;;;;;4.48;45.11;100809.75;5021439;28;20200;-61
2022/03/02 10:58:53;;;;;;;8.97;7.23;;;;;;;4.39;45.56;100804.81;5032774;28;20572;-60
2022/03/02 11:01:19;;;;;;;8.97;7.23;;;;;;;4.20;44.73;100809.38;5023390;28;20332;-60
2022/03/02 11:03:45;;;;;;;9.73;7.00;;;;;;;4.28;45.19;100810.09;5050396;28;20205;-59
2022/03/02 11:06:11;;;;;;;8.87;7.37;;;;;;;4.31;45.02;100810.03;5050248;28;20209;-60
2022/03/02 11:08:38;;;;;;;11.23;8.60;;;;;;;4.31;44.94;100810.03;5032591;28;20301;-60
2022/03/02 11:11:07;;;;;;;12.30;7.90;;;;;;;4.49;44.81;100808.88;5020678;28;20296;-59
2022/03/02 11:13:33;;;;;;;10.07;7.73;;;;;;;4.72;44.65;100805.06;5014231;28;20189;-60
2022/03/02 11:16:00;;;;;;;13.60;7.90;;;;;;;5.00;44.05;100801.97;5030918;28;20198;-60
2022/03/02 11:21:50;;;;;;;14.80;8.30;;;;;;;4.42;44.95;100798.84;5018881;28;20837;-59
2022/03/02 11:24:55;;;;;;;10.30;8.48;;;;;;;4.18;45.30;100801.78;5030205;28;20437;-58
2022/03/02 11:27:38;;;;;;;11.47;8.50;;;;;;;4.08;45.28;100799.38;5020205;28;20194;-63
2022/03/02 11:30:05;;;;;;;7.70;6.90;;;;;;;4.12;45.69;100796.78;5045874;28;20187;-58